createdAt,value
2023-05-25T00:01:35.656Z,11.90
2023-05-25T00:04:05.442Z,11.90
2023-05-25T00:06:37.315Z,11.80
2023-05-25T00:09:05.391Z,11.80
2023-05-25T00:11:33.323Z,11.80
2023-05-25T00:14:01.345Z,11.80
2023-05-25T00:16:29.414Z,11.70
2023-05-25T00:18:58.106Z,11.70
2023-05-25T00:21:27.518Z,11.70
2023-05-25T00:23:55.522Z,11.60
2023-05-25T00:26:23.464Z,11.60
2023-05-25T00:28:51.397Z,11.60
2023-05-25T00:31:19.407Z,11.60
2023-05-25T00:33:47.470Z,11.50
2023-05-25T00:36:15.491Z,11.50
2023-05-25T00:38:44.985Z,11.50
2023-05-25T00:41:13.507Z,11.40
2023-05-25T00:43:41.475Z,11.40
2023-05-25T00:46:11.575Z,11.40
2023-05-25T00:48:40.827Z,11.40
2023-05-25T00:51:08.851Z,11.40
2023-05-25T00:53:38.118Z,11.30
2023-05-25T00:56:16.373Z,11.30
2023-05-25T00:58:47.301Z,11.30
2023-05-25T01:01:17.381Z,11.30
2023-05-25T01:03:53.568Z,11.30
2023-05-25T01:06:23.384Z,11.20
2023-05-25T01:08:56.803Z,11.20
2023-05-25T01:11:29.091Z,11.20
2023-05-25T01:13:59.204Z,11.20
2023-05-25T01:16:27.392Z,11.20
2023-05-25T01:18:55.472Z,11.20
2023-05-25T01:21:29.236Z,11.20
2023-05-25T01:24:03.782Z,11.20
2023-05-25T01:26:36.227Z,11.30
2023-05-25T01:29:04.800Z,11.30
2023-05-25T01:31:34.320Z,11.40
2023-05-25T01:34:02.547Z,11.40
2023-05-25T01:36:33.105Z,11.40
2023-05-25T01:39:01.233Z,11.30
2023-05-25T01:41:29.227Z,11.30
2023-05-25T01:43:57.194Z,11.40
2023-05-25T01:46:33.966Z,11.30
2023-05-25T01:49:10.313Z,11.40
2023-05-25T01:51:47.686Z,11.40
2023-05-25T01:54:23.025Z,11.40
2023-05-25T01:56:53.467Z,11.40
2023-05-25T01:59:23.160Z,11.40
2023-05-25T02:01:53.573Z,11.40
2023-05-25T02:04:23.132Z,11.40
2023-05-25T02:06:53.062Z,11.30
2023-05-25T02:09:21.254Z,11.40
2023-05-25T02:11:49.951Z,11.30
2023-05-25T02:14:18.330Z,11.40
2023-05-25T02:16:46.951Z,11.30
2023-05-25T02:19:15.145Z,11.30
2023-05-25T02:21:43.299Z,11.40
2023-05-25T02:24:12.689Z,11.20
2023-05-25T02:26:40.759Z,11.20
2023-05-25T02:29:08.734Z,11.10
2023-05-25T02:31:36.747Z,11.10
2023-05-25T02:34:04.757Z,11.20
2023-05-25T02:36:32.777Z,11.10
2023-05-25T02:39:00.740Z,11.00
2023-05-25T02:41:30.098Z,11.00
2023-05-25T02:43:59.272Z,11.00
2023-05-25T02:46:27.289Z,11.00
2023-05-25T02:48:55.366Z,10.70
2023-05-25T02:51:23.261Z,10.90
2023-05-25T02:53:51.822Z,10.90
2023-05-25T02:56:19.777Z,10.90
2023-05-25T02:58:49.060Z,10.90
2023-05-25T03:01:18.441Z,10.80
2023-05-25T03:03:47.387Z,10.80
2023-05-25T03:06:16.044Z,10.80
2023-05-25T03:08:44.037Z,10.70
2023-05-25T03:11:12.016Z,10.70
2023-05-25T03:13:40.016Z,10.70
2023-05-25T03:16:09.687Z,10.60
2023-05-25T03:18:37.665Z,10.70
2023-05-25T03:21:05.858Z,10.60
2023-05-25T03:23:33.888Z,10.60
2023-05-25T03:26:01.846Z,10.80
2023-05-25T03:28:29.808Z,10.50
2023-05-25T03:30:57.794Z,10.50
2023-05-25T03:33:27.069Z,10.50
2023-05-25T03:35:55.001Z,10.60
2023-05-25T03:38:23.145Z,10.50
2023-05-25T03:40:51.154Z,10.50
2023-05-25T03:43:19.096Z,10.50
2023-05-25T03:45:47.360Z,10.40
2023-05-25T03:48:15.635Z,10.40
2023-05-25T03:50:44.937Z,10.40
2023-05-25T03:53:12.877Z,10.40
2023-05-25T03:55:41.902Z,10.40
2023-05-25T03:58:10.050Z,10.40
2023-05-25T04:00:38.239Z,10.40
2023-05-25T04:03:07.040Z,10.40
2023-05-25T04:05:35.137Z,10.40
2023-05-25T04:08:04.653Z,10.30
2023-05-25T04:10:32.619Z,10.30
2023-05-25T04:13:00.853Z,10.30
2023-05-25T04:15:28.838Z,10.30
2023-05-25T04:17:59.463Z,10.30
2023-05-25T04:20:27.462Z,10.30
2023-05-25T04:22:55.622Z,10.30
2023-05-25T04:25:27.211Z,10.30
2023-05-25T04:27:56.977Z,10.30
2023-05-25T04:30:25.007Z,10.30
2023-05-25T04:32:53.044Z,10.30
2023-05-25T04:35:21.163Z,10.40
2023-05-25T04:37:49.304Z,10.40
2023-05-25T04:40:17.295Z,10.40
2023-05-25T04:42:48.012Z,10.40
2023-05-25T04:45:17.284Z,10.40
2023-05-25T04:47:45.334Z,10.40
2023-05-25T04:50:13.655Z,10.50
2023-05-25T04:52:41.559Z,10.40
2023-05-25T04:55:10.307Z,10.50
2023-05-25T04:57:38.366Z,10.50
2023-05-25T05:00:10.815Z,10.50
2023-05-25T05:02:38.596Z,10.50
2023-05-25T05:05:07.683Z,10.50
2023-05-25T05:07:36.036Z,10.60
2023-05-25T05:10:04.506Z,10.50
2023-05-25T05:12:32.516Z,10.70
2023-05-25T05:15:00.466Z,10.70
2023-05-25T05:17:30.783Z,10.70
2023-05-25T05:19:58.967Z,10.70
2023-05-25T05:22:27.228Z,10.70
2023-05-25T05:24:55.239Z,10.80
2023-05-25T05:27:23.265Z,10.90
2023-05-25T05:29:51.249Z,10.90
2023-05-25T05:32:19.239Z,10.90
2023-05-25T05:34:48.651Z,11.00
2023-05-25T05:37:16.718Z,11.00
2023-05-25T05:39:44.637Z,10.70
2023-05-25T05:42:12.532Z,11.10
2023-05-25T05:44:40.798Z,11.10
2023-05-25T05:47:08.844Z,11.20
2023-05-25T05:49:38.209Z,11.30
2023-05-25T05:52:09.683Z,11.30
2023-05-25T05:54:37.702Z,11.30
2023-05-25T05:57:06.543Z,11.40
2023-05-25T05:59:35.390Z,11.40
2023-05-25T06:02:03.481Z,11.50
2023-05-25T06:04:31.451Z,11.50
2023-05-25T06:06:59.490Z,11.40
2023-05-25T06:09:28.802Z,11.70
2023-05-25T06:11:56.765Z,11.70
2023-05-25T06:14:26.761Z,11.80
2023-05-25T06:16:56.207Z,11.80
2023-05-25T06:19:24.201Z,11.90
2023-05-25T06:21:52.149Z,12.00
2023-05-25T06:24:20.098Z,12.00
2023-05-25T06:26:49.475Z,12.00
2023-05-25T06:29:17.746Z,12.10
2023-05-25T06:31:45.926Z,12.10
2023-05-25T06:34:14.013Z,12.20
2023-05-25T06:36:42.186Z,12.30
2023-05-25T06:39:10.184Z,12.40
2023-05-25T06:41:40.500Z,12.50
2023-05-25T06:44:09.880Z,12.60
2023-05-25T06:46:39.286Z,12.60
2023-05-25T06:49:07.650Z,12.60
2023-05-25T06:51:35.594Z,12.70
2023-05-25T06:54:03.543Z,12.80
2023-05-25T06:56:31.507Z,12.80
2023-05-25T06:58:59.464Z,12.90
2023-05-25T07:01:28.911Z,13.00
2023-05-25T07:03:56.921Z,13.10
2023-05-25T07:06:24.898Z,13.20
2023-05-25T07:08:52.891Z,13.20
2023-05-25T07:11:22.061Z,13.20
2023-05-25T07:13:50.101Z,13.30
2023-05-25T07:16:18.084Z,13.40
2023-05-25T07:18:47.815Z,13.40
2023-05-25T07:21:15.811Z,13.50
2023-05-25T07:23:43.728Z,13.60
2023-05-25T07:26:11.741Z,13.70
2023-05-25T07:28:39.710Z,13.70
2023-05-25T07:31:07.701Z,13.90
2023-05-25T07:33:35.717Z,13.90
2023-05-25T07:36:05.465Z,14.00
2023-05-25T07:38:33.434Z,14.00
2023-05-25T07:41:01.399Z,14.00
2023-05-25T07:43:29.390Z,14.10
2023-05-25T07:45:57.396Z,14.20
2023-05-25T07:48:25.420Z,14.10
2023-05-25T07:50:53.416Z,14.20
2023-05-25T07:53:22.730Z,14.30
2023-05-25T07:55:50.860Z,14.30
2023-05-25T07:58:18.935Z,14.40
2023-05-25T08:00:46.879Z,14.40
2023-05-25T08:03:14.880Z,14.50
2023-05-25T08:05:44.255Z,14.60
2023-05-25T08:08:12.446Z,14.60
2023-05-25T08:10:41.851Z,14.60
2023-05-25T08:13:09.763Z,14.80
2023-05-25T08:15:37.763Z,14.80
2023-05-25T08:18:06.640Z,14.80
2023-05-25T08:20:34.944Z,14.90
2023-05-25T08:23:03.376Z,14.90
2023-05-25T08:25:31.353Z,15.00
2023-05-25T08:28:00.787Z,15.10
2023-05-25T08:30:29.194Z,15.20
2023-05-25T08:32:57.258Z,15.30
2023-05-25T08:35:25.264Z,15.40
2023-05-25T08:37:53.235Z,15.50
2023-05-25T08:40:24.419Z,15.60
2023-05-25T08:42:52.344Z,15.60
2023-05-25T08:45:34.393Z,15.70
2023-05-25T08:48:09.947Z,15.40
2023-05-25T08:50:41.292Z,15.60
2023-05-25T08:53:11.751Z,15.60
2023-05-25T08:55:43.118Z,15.60
2023-05-25T08:58:17.816Z,15.50
2023-05-25T09:00:54.584Z,15.50
2023-05-25T09:03:25.483Z,15.40
2023-05-25T09:05:53.659Z,15.50
2023-05-25T09:08:22.856Z,15.50
2023-05-25T09:10:52.964Z,15.50
2023-05-25T09:13:22.871Z,15.50
2023-05-25T09:15:53.201Z,15.60
2023-05-25T09:18:21.378Z,15.60
2023-05-25T09:20:49.940Z,15.70
2023-05-25T09:23:18.651Z,15.80
2023-05-25T09:25:50.706Z,15.80
2023-05-25T09:28:26.826Z,15.80
2023-05-25T09:30:57.526Z,15.80
2023-05-25T09:33:25.675Z,15.90
2023-05-25T09:35:53.798Z,15.90
2023-05-25T09:38:22.480Z,16.00
2023-05-25T09:40:50.850Z,16.00
2023-05-25T09:43:32.370Z,16.10
2023-05-25T09:46:08.435Z,16.10
2023-05-25T09:48:36.911Z,16.10
2023-05-25T09:51:05.249Z,16.20
2023-05-25T09:53:33.380Z,16.30
2023-05-25T09:56:03.959Z,16.40
2023-05-25T09:58:32.307Z,16.50
2023-05-25T10:01:00.952Z,16.60
2023-05-25T10:03:30.677Z,16.70
2023-05-25T10:05:58.928Z,16.90
2023-05-25T10:11:17.774Z,17.30
2023-05-25T10:13:47.318Z,17.40
2023-05-25T10:16:18.386Z,17.40
2023-05-25T10:18:52.961Z,17.40
2023-05-25T10:21:23.714Z,17.40
2023-05-25T10:23:55.103Z,17.40
2023-05-25T10:26:27.339Z,17.40
2023-05-25T10:29:00.394Z,17.50
2023-05-25T10:31:29.981Z,17.50
2023-05-25T10:34:00.413Z,17.50
2023-05-25T10:36:30.742Z,17.60
2023-05-25T10:38:59.570Z,17.60
2023-05-25T10:41:27.872Z,17.80
2023-05-25T10:43:55.999Z,17.80
2023-05-25T10:46:24.099Z,17.80
2023-05-25T10:48:52.863Z,17.80
2023-05-25T10:51:23.506Z,17.90
2023-05-25T10:54:01.831Z,17.80
2023-05-25T10:56:29.832Z,17.90
2023-05-25T10:58:58.116Z,17.90
2023-05-25T11:01:26.889Z,17.90
2023-05-25T11:04:14.676Z,17.90
2023-05-25T11:07:19.591Z,17.90
2023-05-25T11:09:59.563Z,17.90
2023-05-25T11:12:28.027Z,17.90
2023-05-25T11:15:16.263Z,17.90
2023-05-25T11:17:59.074Z,18.00
2023-05-25T11:20:30.030Z,18.10
2023-05-25T11:23:21.008Z,18.20
2023-05-25T11:25:50.484Z,18.20
2023-05-25T11:28:18.570Z,18.20
2023-05-25T11:30:46.687Z,18.30
2023-05-25T11:33:16.941Z,18.30
2023-05-25T11:35:48.888Z,18.30
2023-05-25T11:38:17.994Z,18.10
2023-05-25T11:40:45.977Z,18.10
2023-05-25T11:43:16.359Z,18.10
2023-05-25T11:45:44.494Z,18.00
2023-05-25T11:48:16.068Z,18.10
2023-05-25T11:50:44.375Z,18.10
2023-05-25T11:53:12.699Z,18.20
2023-05-25T11:55:42.984Z,18.30
2023-05-25T11:58:11.009Z,18.10
2023-05-25T12:00:40.429Z,18.10
2023-05-25T12:03:10.437Z,18.10
2023-05-25T12:05:39.086Z,18.00
2023-05-25T12:08:07.282Z,18.00
2023-05-25T12:10:35.287Z,18.00
2023-05-25T12:13:04.667Z,18.10
2023-05-25T12:15:32.821Z,18.20
2023-05-25T12:18:02.448Z,18.10
2023-05-25T12:20:30.593Z,18.10
2023-05-25T12:22:59.339Z,18.30
2023-05-25T12:25:38.641Z,18.30
2023-05-25T12:28:15.795Z,18.40
2023-05-25T12:30:43.787Z,18.30
2023-05-25T12:33:14.831Z,18.50
2023-05-25T12:35:47.535Z,18.50
2023-05-25T12:38:17.750Z,18.70
2023-05-25T12:40:46.393Z,18.90
2023-05-25T12:43:16.963Z,18.90
2023-05-25T12:45:45.430Z,18.90
2023-05-25T12:48:14.841Z,18.90
2023-05-25T12:50:58.057Z,18.90
2023-05-25T12:53:27.156Z,19.00
2023-05-25T12:56:02.824Z,19.10
2023-05-25T12:58:30.834Z,19.20
2023-05-25T13:00:58.909Z,19.20
2023-05-25T13:03:28.290Z,19.40
2023-05-25T13:06:02.187Z,19.40
2023-05-25T13:08:30.519Z,19.40
2023-05-25T13:10:58.870Z,19.50
2023-05-25T13:13:26.924Z,19.60
2023-05-25T13:15:54.940Z,19.70
2023-05-25T13:18:22.970Z,19.90
2023-05-25T13:20:55.999Z,19.90
2023-05-25T13:23:24.990Z,19.90
2023-05-25T13:25:52.902Z,19.90
2023-05-25T13:28:20.980Z,19.90
2023-05-25T13:30:48.918Z,19.80
2023-05-25T13:33:16.949Z,19.90
2023-05-25T13:35:58.123Z,19.90
2023-05-25T13:38:29.578Z,20.00
2023-05-25T13:40:57.821Z,20.00
2023-05-25T13:43:25.799Z,19.90
2023-05-25T13:45:53.817Z,19.90
2023-05-25T13:48:21.969Z,20.00
2023-05-25T13:50:49.994Z,19.80
2023-05-25T13:53:18.105Z,20.30
2023-05-25T13:55:47.641Z,20.80
2023-05-25T13:58:15.646Z,20.80
2023-05-25T14:00:44.046Z,20.60
2023-05-25T14:03:12.277Z,20.60
2023-05-25T14:05:40.923Z,20.60
2023-05-25T14:08:09.238Z,20.50
2023-05-25T14:10:38.948Z,20.10
2023-05-25T14:13:08.289Z,19.80
2023-05-25T14:15:36.410Z,19.90
2023-05-25T14:18:04.755Z,19.90
2023-05-25T14:20:37.037Z,19.80
2023-05-25T14:23:05.111Z,19.60
2023-05-25T14:25:33.081Z,19.60
2023-05-25T14:28:01.086Z,19.70
2023-05-25T14:30:30.367Z,19.80
2023-05-25T14:32:58.373Z,19.80
2023-05-25T14:35:26.311Z,19.90
2023-05-25T14:37:54.311Z,20.10
2023-05-25T14:40:22.377Z,20.50
2023-05-25T14:42:55.336Z,21.10
2023-05-25T14:45:23.357Z,21.60
2023-05-25T14:48:03.967Z,21.50
2023-05-25T14:50:36.065Z,21.20
2023-05-25T14:53:03.996Z,22.00
2023-05-25T14:55:31.938Z,22.40
2023-05-25T14:57:59.982Z,23.00
2023-05-25T15:00:27.990Z,23.50
2023-05-25T15:02:57.425Z,24.00
2023-05-25T15:05:25.435Z,24.30
2023-05-25T15:07:53.437Z,24.40
2023-05-25T15:10:21.515Z,24.80
2023-05-25T15:12:49.534Z,24.80
2023-05-25T15:15:17.650Z,24.80
2023-05-25T15:17:45.634Z,25.00
2023-05-25T15:20:15.010Z,24.50
2023-05-25T15:22:43.026Z,25.30
2023-05-25T15:25:11.041Z,25.80
2023-05-25T15:27:38.998Z,26.00
2023-05-25T15:30:08.380Z,26.40
2023-05-25T15:32:36.434Z,26.20
2023-05-25T15:35:04.681Z,26.50
2023-05-25T15:37:33.940Z,26.10
2023-05-25T15:40:01.871Z,25.90
2023-05-25T15:42:29.867Z,26.30
2023-05-25T15:44:57.810Z,26.40
2023-05-25T15:47:25.866Z,26.40
2023-05-25T15:49:53.825Z,26.30
2023-05-25T15:52:21.924Z,26.80
2023-05-25T15:54:51.339Z,26.90
2023-05-25T15:57:19.331Z,26.90
2023-05-25T15:59:48.013Z,27.00
2023-05-25T16:02:16.096Z,27.00
2023-05-25T16:04:44.326Z,27.30
2023-05-25T16:07:14.115Z,27.30
2023-05-25T16:09:42.040Z,26.50
2023-05-25T16:12:11.360Z,26.80
2023-05-25T16:14:39.533Z,27.10
2023-05-25T16:17:07.642Z,27.30
2023-05-25T16:19:36.023Z,27.20
2023-05-25T16:22:03.974Z,27.20
2023-05-25T16:24:31.942Z,27.00
2023-05-25T16:26:59.900Z,27.00
2023-05-25T16:29:29.323Z,26.50
2023-05-25T16:31:57.512Z,26.50
2023-05-25T16:34:25.818Z,26.80
2023-05-25T16:36:53.758Z,26.50
2023-05-25T16:39:21.714Z,26.80
2023-05-25T16:41:50.880Z,26.90
2023-05-25T16:44:19.073Z,27.10
2023-05-25T16:46:48.676Z,27.00
2023-05-25T16:49:16.641Z,26.80
2023-05-25T16:51:44.628Z,27.00
2023-05-25T16:54:12.595Z,27.00
2023-05-25T16:56:40.873Z,26.90
2023-05-25T16:59:08.880Z,26.80
2023-05-25T17:01:36.891Z,26.60
2023-05-25T17:04:06.435Z,26.10
2023-05-25T17:06:34.909Z,26.20
2023-05-25T17:09:02.981Z,26.40
2023-05-25T17:11:30.964Z,26.30
2023-05-25T17:13:58.894Z,26.50
2023-05-25T17:16:26.892Z,26.10
2023-05-25T17:18:54.849Z,26.30
2023-05-25T17:21:24.156Z,26.40
2023-05-25T17:23:52.090Z,26.30
2023-05-25T17:26:20.020Z,26.40
2023-05-25T17:28:48.860Z,26.40
2023-05-25T17:31:17.102Z,26.20
2023-05-25T17:33:45.106Z,26.10
2023-05-25T17:36:12.990Z,26.10
2023-05-25T17:38:43.545Z,26.00
2023-05-25T17:41:11.531Z,25.70
2023-05-25T17:43:39.441Z,25.80
2023-05-25T17:46:07.597Z,26.00
2023-05-25T17:48:36.572Z,25.80
2023-05-25T17:51:05.009Z,25.70
2023-05-25T17:53:32.919Z,25.40
2023-05-25T17:56:02.156Z,25.30
2023-05-25T17:58:30.050Z,25.20
2023-05-25T18:00:58.034Z,25.50
2023-05-25T18:03:26.504Z,25.40
2023-05-25T18:05:54.652Z,25.30
2023-05-25T18:08:22.582Z,25.40
2023-05-25T18:10:52.834Z,25.10
2023-05-25T18:13:22.213Z,25.20
2023-05-25T18:15:50.124Z,25.20
2023-05-25T18:18:20.751Z,25.10
2023-05-25T18:20:48.679Z,25.20
2023-05-25T18:23:16.658Z,25.40
2023-05-25T18:25:44.848Z,24.80
2023-05-25T18:28:15.005Z,24.40
2023-05-25T18:30:45.120Z,24.00
2023-05-25T18:33:13.159Z,24.00
2023-05-25T18:35:41.423Z,23.80
2023-05-25T18:38:09.371Z,24.00
2023-05-25T18:40:37.252Z,23.80
2023-05-25T18:43:05.686Z,23.30
2023-05-25T18:45:33.623Z,23.30
2023-05-25T18:48:07.398Z,23.20
2023-05-25T18:50:37.656Z,23.00
2023-05-25T18:53:07.709Z,22.50
2023-05-25T18:55:36.044Z,22.00
2023-05-25T18:58:04.444Z,21.90
2023-05-25T19:00:32.476Z,21.50
2023-05-25T19:03:02.150Z,21.30
2023-05-25T19:05:30.201Z,20.90
2023-05-25T19:08:00.012Z,20.60
2023-05-25T19:10:28.754Z,20.30
2023-05-25T19:12:56.712Z,20.10
2023-05-25T19:15:24.677Z,20.00
2023-05-25T19:17:52.790Z,19.80
2023-05-25T19:20:22.254Z,19.60
2023-05-25T19:22:50.263Z,19.40
2023-05-25T19:25:19.797Z,19.20
2023-05-25T19:27:47.799Z,19.00
2023-05-25T19:30:15.969Z,18.70
2023-05-25T19:32:44.352Z,18.50
2023-05-25T19:35:12.894Z,18.20
2023-05-25T19:37:42.270Z,18.20
2023-05-25T19:40:11.186Z,18.10
2023-05-25T19:42:39.230Z,17.90
2023-05-25T19:45:07.996Z,17.60
2023-05-25T19:47:36.441Z,17.50
2023-05-25T19:50:04.751Z,17.40
2023-05-25T19:52:32.935Z,17.20
2023-05-25T19:55:02.434Z,16.90
2023-05-25T19:57:30.451Z,16.80
2023-05-25T19:59:58.428Z,16.70
2023-05-25T20:02:26.446Z,16.50
2023-05-25T20:04:54.587Z,16.30
2023-05-25T20:07:23.767Z,16.20
2023-05-25T20:09:51.769Z,16.10
2023-05-25T20:12:21.800Z,16.00
2023-05-25T20:14:49.864Z,15.90
2023-05-25T20:17:17.884Z,15.80
2023-05-25T20:19:45.850Z,15.60
2023-05-25T20:22:13.942Z,15.50
2023-05-25T20:24:42.096Z,15.30
2023-05-25T20:27:10.056Z,15.20
2023-05-25T20:29:39.421Z,15.10
2023-05-25T20:32:07.499Z,15.10
2023-05-25T20:34:36.030Z,15.10
2023-05-25T20:37:04.041Z,15.00
2023-05-25T20:39:32.024Z,14.80
2023-05-25T20:42:01.617Z,14.60
2023-05-25T20:44:31.821Z,14.60
2023-05-25T20:47:01.219Z,14.40
2023-05-25T20:49:29.167Z,14.20
2023-05-25T20:51:57.095Z,14.20
2023-05-25T20:54:25.082Z,14.20
2023-05-25T20:56:53.430Z,14.10
2023-05-25T20:59:21.998Z,14.10
2023-05-25T21:01:50.021Z,13.90
2023-05-25T21:04:19.336Z,13.90
2023-05-25T21:06:47.319Z,13.80
2023-05-25T21:09:15.461Z,13.70
2023-05-25T21:11:43.413Z,13.70
2023-05-25T21:14:11.370Z,13.60
2023-05-25T21:16:39.340Z,13.60
2023-05-25T21:19:07.525Z,13.40
2023-05-25T21:21:36.852Z,13.40
2023-05-25T21:24:05.364Z,13.40
2023-05-25T21:26:33.324Z,13.30
2023-05-25T21:29:01.288Z,13.30
2023-05-25T21:31:29.348Z,13.20
2023-05-25T21:33:58.296Z,13.20
2023-05-25T21:36:27.893Z,13.10
2023-05-25T21:38:57.849Z,13.10
2023-05-25T21:41:26.490Z,13.00
2023-05-25T21:43:54.570Z,12.90
2023-05-25T21:46:22.565Z,14.20
2023-05-25T21:48:50.580Z,12.80
2023-05-25T21:51:18.575Z,12.70
2023-05-25T21:53:46.461Z,12.70
2023-05-25T21:56:15.842Z,12.60
2023-05-25T21:58:43.829Z,12.60
2023-05-25T22:01:11.959Z,12.60
2023-05-25T22:03:40.052Z,12.50
2023-05-25T22:06:08.289Z,12.50
2023-05-25T22:08:36.668Z,12.40
2023-05-25T22:11:04.657Z,12.40
2023-05-25T22:13:34.117Z,12.30
2023-05-25T22:16:02.149Z,12.30
2023-05-25T22:18:30.182Z,12.20
2023-05-25T22:20:58.198Z,12.20
2023-05-25T22:23:26.942Z,12.10
2023-05-25T22:25:55.135Z,12.10
2023-05-25T22:28:23.147Z,12.10
2023-05-25T22:30:52.500Z,12.00
2023-05-25T22:33:20.577Z,12.00
2023-05-25T22:35:48.737Z,12.00
2023-05-25T22:38:16.757Z,11.90
2023-05-25T22:40:47.421Z,11.80
2023-05-25T22:43:15.497Z,11.80
2023-05-25T22:45:43.978Z,11.80
2023-05-25T22:48:13.594Z,11.80
2023-05-25T22:50:41.716Z,11.70
2023-05-25T22:53:09.700Z,11.60
2023-05-25T22:55:37.628Z,11.50
2023-05-25T22:58:05.605Z,11.50
2023-05-25T23:00:33.832Z,11.40
2023-05-25T23:03:04.102Z,11.50
2023-05-25T23:05:33.917Z,11.50
2023-05-25T23:08:01.858Z,11.40
2023-05-25T23:10:29.755Z,11.40
2023-05-25T23:12:57.766Z,11.40
2023-05-25T23:15:25.719Z,11.30
2023-05-25T23:17:53.718Z,11.30
2023-05-25T23:20:21.763Z,11.20
2023-05-25T23:22:51.166Z,11.20
2023-05-25T23:25:19.216Z,11.20
2023-05-25T23:27:47.240Z,11.10
2023-05-25T23:30:15.310Z,11.10
2023-05-25T23:32:43.511Z,11.00
2023-05-25T23:35:11.492Z,11.00
2023-05-25T23:37:39.460Z,11.00
2023-05-25T23:40:09.734Z,10.90
2023-05-25T23:42:39.673Z,10.80
2023-05-25T23:45:09.341Z,10.80
2023-05-25T23:47:37.311Z,10.80
2023-05-25T23:50:05.658Z,10.70
2023-05-25T23:52:33.665Z,10.70
2023-05-25T23:55:01.563Z,10.60
2023-05-25T23:57:31.015Z,10.60
2023-05-25T23:59:59.240Z,10.60
